createdAt,value
2018-11-04T00:02:41.189Z,32.37
2018-11-04T00:06:45.136Z,36.93
2018-11-04T00:10:49.280Z,35.97
2018-11-04T00:14:53.218Z,42.90
2018-11-04T00:18:57.365Z,33.77
2018-11-04T00:23:01.309Z,38.20
2018-11-04T00:27:05.695Z,34.63
2018-11-04T00:31:09.904Z,39.70
2018-11-04T00:35:13.756Z,32.78
2018-11-04T00:39:18.304Z,28.85
2018-11-04T00:43:22.196Z,37.90
2018-11-04T00:47:27.520Z,40.67
2018-11-04T00:51:31.420Z,35.73
2018-11-04T00:55:35.271Z,34.93
2018-11-04T00:59:40.864Z,31.80
2018-11-04T01:03:45.281Z,31.57
2018-11-04T01:07:49.671Z,36.03
2018-11-04T01:11:54.329Z,43.20
2018-11-04T01:15:58.659Z,44.67
2018-11-04T01:20:02.868Z,36.70
2018-11-04T01:24:07.136Z,34.97
2018-11-04T01:28:11.553Z,39.47
2018-11-04T01:32:17.274Z,35.73
2018-11-04T01:36:22.053Z,42.80
2018-11-04T01:40:26.276Z,38.47
2018-11-04T01:44:31.223Z,33.67
2018-11-04T01:48:35.560Z,41.20
2018-11-04T01:52:39.924Z,41.60
2018-11-04T01:56:44.363Z,36.13
2018-11-04T02:00:48.993Z,36.77
2018-11-04T02:04:53.224Z,39.23
2018-11-04T02:08:58.033Z,33.37
2018-11-04T02:13:02.382Z,32.67
2018-11-04T02:17:06.536Z,41.80
2018-11-04T02:21:10.667Z,48.40
2018-11-04T02:25:15.097Z,40.03
2018-11-04T02:29:19.364Z,42.37
2018-11-04T02:33:24.067Z,44.30
2018-11-04T02:37:28.145Z,36.20
2018-11-04T02:41:32.519Z,29.87
2018-11-04T02:45:36.640Z,29.37
2018-11-04T02:49:41.781Z,31.27
2018-11-04T02:53:45.920Z,28.83
2018-11-04T02:57:50.510Z,35.77
2018-11-04T03:01:54.664Z,31.73
2018-11-04T03:05:58.701Z,37.27
2018-11-04T03:10:02.998Z,35.80
2018-11-04T03:14:07.127Z,36.88
2018-11-04T03:18:11.486Z,32.05
2018-11-04T03:22:15.872Z,31.47
2018-11-04T03:26:20.101Z,27.37
2018-11-04T03:30:24.293Z,31.93
2018-11-04T03:34:28.721Z,42.23
2018-11-04T03:38:32.795Z,35.30
2018-11-04T03:42:36.869Z,33.17
2018-11-04T03:46:41.168Z,30.23
2018-11-04T03:50:45.809Z,30.10
2018-11-04T03:54:50.285Z,30.10
2018-11-04T03:58:55.146Z,36.57
2018-11-04T04:02:59.773Z,33.78
2018-11-04T04:07:05.579Z,33.08
2018-11-04T04:11:09.949Z,34.67
2018-11-04T04:15:15.480Z,31.07
2018-11-04T04:19:19.572Z,33.85
2018-11-04T04:23:23.611Z,31.80
2018-11-04T04:27:27.939Z,27.80
2018-11-04T04:31:32.382Z,39.07
2018-11-04T04:35:36.530Z,33.83
2018-11-04T04:39:40.998Z,36.13
2018-11-04T04:43:45.027Z,34.20
2018-11-04T04:47:49.089Z,32.63
2018-11-04T04:51:53.136Z,37.58
2018-11-04T04:55:58.050Z,39.47
2018-11-04T05:00:02.135Z,41.27
2018-11-04T05:04:06.290Z,32.10
2018-11-04T05:08:10.941Z,38.53
2018-11-04T05:12:15.025Z,35.53
2018-11-04T05:16:19.160Z,31.90
2018-11-04T05:20:23.390Z,28.80
2018-11-04T05:24:27.896Z,34.20
2018-11-04T05:28:31.935Z,39.60
2018-11-04T05:32:35.972Z,37.67
2018-11-04T05:36:39.953Z,38.73
2018-11-04T05:40:43.981Z,39.27
2018-11-04T05:44:47.984Z,37.73
2018-11-04T05:48:51.985Z,31.15
2018-11-04T05:52:56.646Z,34.27
2018-11-04T05:57:00.690Z,39.00
2018-11-04T06:01:05.856Z,33.40
2018-11-04T06:05:11.133Z,35.30
2018-11-04T06:09:15.029Z,32.00
2018-11-04T06:13:18.912Z,25.10
2018-11-04T06:17:23.225Z,32.17
2018-11-04T06:21:27.065Z,27.20
2018-11-04T06:25:31.184Z,23.07
2018-11-04T06:29:35.323Z,25.03
2018-11-04T06:33:39.583Z,32.57
2018-11-04T06:37:43.644Z,26.00
2018-11-04T06:41:47.667Z,29.10
2018-11-04T06:45:51.954Z,39.80
2018-11-04T06:49:56.261Z,29.30
2018-11-04T06:54:00.375Z,28.23
2018-11-04T06:58:05.396Z,39.55
2018-11-04T07:02:09.726Z,44.03
2018-11-04T07:06:13.934Z,38.15
2018-11-04T07:10:18.321Z,42.13
2018-11-04T07:14:22.591Z,40.83
2018-11-04T07:18:27.117Z,42.97
2018-11-04T07:22:31.276Z,38.73
2018-11-04T07:26:36.053Z,38.10
2018-11-04T07:30:40.040Z,43.60
2018-11-04T07:34:44.054Z,45.10
2018-11-04T07:38:48.024Z,36.33
2018-11-04T07:42:52.277Z,48.90
2018-11-04T07:46:56.446Z,44.20
2018-11-04T07:51:00.886Z,31.67
2018-11-04T07:55:08.231Z,40.13
2018-11-04T07:59:12.574Z,39.40
2018-11-04T08:03:16.771Z,32.55
2018-11-04T08:07:20.776Z,29.02
2018-11-04T08:11:24.728Z,29.77
2018-11-04T08:15:29.263Z,38.17
2018-11-04T08:19:33.349Z,35.57
2018-11-04T08:23:37.747Z,31.70
2018-11-04T08:27:41.888Z,36.93
2018-11-04T08:31:46.773Z,26.57
2018-11-04T08:35:50.813Z,33.53
2018-11-04T08:39:55.247Z,34.73
2018-11-04T08:44:00.421Z,30.83
2018-11-04T08:48:05.394Z,24.90
2018-11-04T08:52:09.368Z,29.90
2018-11-04T08:56:13.326Z,27.60
2018-11-04T09:00:17.433Z,30.57
2018-11-04T09:04:21.731Z,29.98
2018-11-04T09:08:26.641Z,29.03
2018-11-04T09:12:30.644Z,28.23
2018-11-04T09:16:34.625Z,26.97
2018-11-04T09:20:38.592Z,22.63
2018-11-04T09:24:42.566Z,22.00
2018-11-04T09:28:46.670Z,19.83
2018-11-04T09:32:50.648Z,20.60
2018-11-04T09:36:54.719Z,20.97
2018-11-04T09:40:58.800Z,22.23
2018-11-04T09:45:02.883Z,21.17
2018-11-04T09:49:07.256Z,20.10
2018-11-04T09:53:11.363Z,21.60
2018-11-04T09:57:15.792Z,21.25
2018-11-04T10:01:19.862Z,19.48
2018-11-04T10:05:28.554Z,21.48
2018-11-04T10:09:34.463Z,21.52
2018-11-04T10:13:40.087Z,21.80
2018-11-04T10:17:46.211Z,21.90
2018-11-04T10:21:52.607Z,22.85
2018-11-04T10:25:57.359Z,19.67
2018-11-04T10:30:01.286Z,19.43
2018-11-04T10:34:05.643Z,18.90
2018-11-04T10:38:09.757Z,21.03
2018-11-04T10:42:15.447Z,18.98
2018-11-04T10:46:20.687Z,19.90
2018-11-04T10:50:24.897Z,20.90
2018-11-04T10:54:29.792Z,19.42
2018-11-04T10:58:35.420Z,21.90
2018-11-04T11:02:40.042Z,21.83
2018-11-04T11:06:45.146Z,20.15
2018-11-04T11:10:49.073Z,18.53
2018-11-04T11:14:52.979Z,21.97
2018-11-04T11:18:56.886Z,20.55
2018-11-04T11:23:01.093Z,18.92
2018-11-04T11:27:05.419Z,22.17
2018-11-04T11:31:09.336Z,19.70
2018-11-04T11:35:13.213Z,23.57
2018-11-04T11:39:17.400Z,21.10
2018-11-04T11:43:21.290Z,21.27
2018-11-04T11:47:25.996Z,20.48
2018-11-04T11:51:32.383Z,23.50
2018-11-04T11:55:36.768Z,20.52
2018-11-04T11:59:43.117Z,20.82
2018-11-04T12:03:48.644Z,23.67
2018-11-04T12:07:52.594Z,24.53
2018-11-04T12:11:57.230Z,19.44
2018-11-04T12:16:01.207Z,20.63
2018-11-04T12:20:07.524Z,25.30
2018-11-04T12:24:11.511Z,24.87
2018-11-04T12:28:15.478Z,23.20
2018-11-04T12:32:19.991Z,22.50
2018-11-04T12:36:23.859Z,22.77
2018-11-04T12:40:27.787Z,21.20
2018-11-04T12:44:31.853Z,24.80
2018-11-04T12:48:36.536Z,21.50
2018-11-04T12:52:41.047Z,21.12
2018-11-04T12:56:44.936Z,20.03
2018-11-04T13:00:48.814Z,25.47
2018-11-04T13:04:52.821Z,23.73
2018-11-04T13:08:56.696Z,21.97
2018-11-04T13:13:00.612Z,22.77
2018-11-04T13:17:04.952Z,26.07
2018-11-04T13:21:09.094Z,22.07
2018-11-04T13:25:12.982Z,25.52
2018-11-04T13:29:16.941Z,23.93
2018-11-04T13:33:20.967Z,24.67
2018-11-04T13:37:25.195Z,23.32
2018-11-04T13:41:29.092Z,24.23
2018-11-04T13:45:33.984Z,25.43
2018-11-04T13:49:38.436Z,25.48
2018-11-04T13:53:42.563Z,23.60
2018-11-04T13:57:46.431Z,25.92
2018-11-04T14:01:50.484Z,26.02
2018-11-04T14:05:54.389Z,27.07
2018-11-04T14:09:58.588Z,26.33
2018-11-04T14:14:03.289Z,26.73
2018-11-04T14:18:07.200Z,26.97
2018-11-04T14:22:11.764Z,27.62
2018-11-04T14:26:15.671Z,26.70
2018-11-04T14:30:19.716Z,27.17
2018-11-04T14:34:23.572Z,30.30
2018-11-04T14:38:27.812Z,30.77
2018-11-04T14:42:31.842Z,27.73
2018-11-04T14:46:36.184Z,29.10
2018-11-04T14:50:40.029Z,27.73
2018-11-04T14:54:44.022Z,31.12
2018-11-04T14:58:48.294Z,27.87
2018-11-04T15:02:52.112Z,28.97
2018-11-04T15:06:56.032Z,29.53
2018-11-04T15:10:59.948Z,27.93
2018-11-04T15:15:08.286Z,30.33
2018-11-04T15:19:12.230Z,29.75
2018-11-04T15:23:16.079Z,29.57
2018-11-04T15:27:19.980Z,32.75
2018-11-04T15:31:23.918Z,33.40
2018-11-04T15:35:28.112Z,33.67
2018-11-04T15:39:31.988Z,32.53
2018-11-04T15:43:35.872Z,30.80
2018-11-04T15:47:40.195Z,32.43
2018-11-04T15:51:44.158Z,31.00
2018-11-04T15:55:48.291Z,34.03
2018-11-04T15:59:52.162Z,32.30
2018-11-04T16:03:56.046Z,33.63
2018-11-04T16:07:59.999Z,33.63
2018-11-04T16:12:03.860Z,33.13
2018-11-04T16:16:07.770Z,34.83
2018-11-04T16:20:13.053Z,40.13
2018-11-04T16:24:16.969Z,38.83
2018-11-04T16:28:21.097Z,39.40
2018-11-04T16:32:25.016Z,36.30
2018-11-04T16:36:29.318Z,47.57
2018-11-04T16:40:33.262Z,90.27
2018-11-04T16:44:37.251Z,41.53
2018-11-04T16:48:41.091Z,42.50
2018-11-04T16:52:45.850Z,43.57
2018-11-04T16:56:49.752Z,39.93
2018-11-04T17:00:54.020Z,48.27
2018-11-04T17:04:57.992Z,42.78
2018-11-04T17:09:03.306Z,37.73
2018-11-04T17:13:07.265Z,41.03
2018-11-04T17:17:11.583Z,43.10
2018-11-04T17:21:15.450Z,41.77
2018-11-04T17:25:24.039Z,49.45
2018-11-04T17:29:31.050Z,42.67
2018-11-04T17:33:35.387Z,42.50
2018-11-04T17:37:40.421Z,44.33
2018-11-04T17:41:44.502Z,56.60
2018-11-04T17:45:48.680Z,43.40
2018-11-04T17:49:52.856Z,73.05
2018-11-04T17:53:56.775Z,51.73
2018-11-04T17:58:00.918Z,43.10
2018-11-04T18:02:05.041Z,40.43
2018-11-04T18:06:08.977Z,44.60
2018-11-04T18:10:13.837Z,47.25
2018-11-04T18:14:17.807Z,45.77
2018-11-04T18:18:21.696Z,45.97
2018-11-04T18:22:25.812Z,43.70
2018-11-04T18:26:29.822Z,45.53
2018-11-04T18:30:33.736Z,43.83
2018-11-04T18:34:37.666Z,41.77
2018-11-04T18:38:41.597Z,42.20
2018-11-04T18:42:45.887Z,45.33
2018-11-04T18:46:50.018Z,48.63
2018-11-04T18:50:53.906Z,46.02
2018-11-04T18:54:58.081Z,45.60
2018-11-04T18:59:02.037Z,45.63
2018-11-04T19:03:05.931Z,43.07
2018-11-04T19:07:10.259Z,47.33
2018-11-04T19:11:14.431Z,49.30
2018-11-04T19:15:18.272Z,51.98
2018-11-04T19:19:22.210Z,43.93
2018-11-04T19:23:26.488Z,44.47
2018-11-04T19:27:30.759Z,44.53
2018-11-04T19:31:34.722Z,46.17
2018-11-04T19:35:38.852Z,46.20
2018-11-04T19:39:42.846Z,47.95
2018-11-04T19:43:46.968Z,45.97
2018-11-04T19:47:50.947Z,52.50
2018-11-04T19:51:55.075Z,51.33
2018-11-04T19:55:59.000Z,43.78
2018-11-04T20:00:03.225Z,49.18
2018-11-04T20:04:07.282Z,50.88
2018-11-04T20:08:11.302Z,49.33
2018-11-04T20:12:20.532Z,51.98
2018-11-04T20:16:24.519Z,53.43
2018-11-04T20:20:28.460Z,50.93
2018-11-04T20:26:42.515Z,45.00
2018-11-04T20:30:46.442Z,46.20
2018-11-04T20:34:50.786Z,48.13
2018-11-04T20:39:00.202Z,50.88
2018-11-04T20:43:05.368Z,43.50
2018-11-04T20:47:10.089Z,53.23
2018-11-04T20:51:14.309Z,47.47
2018-11-04T20:55:18.574Z,45.40
2018-11-04T20:59:22.443Z,48.58
2018-11-04T21:03:27.668Z,52.50
2018-11-04T21:07:32.025Z,53.90
2018-11-04T21:11:36.227Z,51.23
2018-11-04T21:15:40.189Z,54.57
2018-11-04T21:19:44.268Z,49.07
2018-11-04T21:23:48.184Z,45.92
2018-11-04T21:27:52.082Z,50.37
2018-11-04T21:31:56.149Z,48.60
2018-11-04T21:36:00.077Z,51.00
2018-11-04T21:40:04.608Z,52.50
2018-11-04T21:44:08.760Z,53.75
2018-11-04T21:48:12.522Z,47.75
2018-11-04T21:52:16.579Z,40.30
2018-11-04T21:56:20.616Z,51.35
2018-11-04T22:00:24.742Z,50.73
2018-11-04T22:04:28.822Z,49.30
2018-11-04T22:08:32.769Z,47.85
2018-11-04T22:12:36.756Z,52.10
2018-11-04T22:16:40.883Z,46.50
2018-11-04T22:20:44.948Z,52.10
2018-11-04T22:24:48.897Z,42.47
2018-11-04T22:28:52.788Z,46.93
2018-11-04T22:32:56.758Z,46.45
2018-11-04T22:37:00.878Z,37.87
2018-11-04T22:41:04.999Z,47.33
2018-11-04T22:45:10.556Z,43.07
2018-11-04T22:49:14.485Z,42.67
2018-11-04T22:53:18.453Z,49.88
2018-11-04T22:57:23.016Z,44.85
2018-11-04T23:01:27.312Z,44.57
2018-11-04T23:05:31.247Z,51.13
2018-11-04T23:09:35.200Z,48.43
2018-11-04T23:13:39.278Z,42.10
2018-11-04T23:17:43.399Z,45.10
2018-11-04T23:21:48.022Z,49.37
2018-11-04T23:25:51.996Z,44.67
2018-11-04T23:29:56.339Z,47.40
2018-11-04T23:34:00.271Z,49.10
2018-11-04T23:38:05.116Z,51.73
2018-11-04T23:42:09.096Z,51.25
2018-11-04T23:46:13.059Z,57.23
2018-11-04T23:50:17.519Z,56.37
2018-11-04T23:54:21.380Z,50.58
2018-11-04T23:58:25.539Z,57.73
